Time;durP1;ratioP1;P1;durP2;ratioP2;P2;SDS_P1;SDS_P2;PMS_P1;PMS_P2;Temp;Humidity;BMP_temperature;BMP_pressure;BME280_temperature;BME280_humidity;BME280_pressure;Samples;Min_cycle;Max_cycle;Signal;HPM_P1;HPM_P2
2021/09/27 00:00:00;;;;;;;18.23;16.40;;;18.90;99.90;;;;;;5077177;28;20918;-63
2021/09/27 00:02:27;;;;;;;20.20;16.33;;;18.90;99.90;;;;;;5077170;28;20464;-63
2021/09/27 00:04:52;;;;;;;19.80;15.87;;;18.90;99.90;;;;;;5059075;28;20497;-63
2021/09/27 00:07:18;;;;;;;17.50;15.70;;;18.90;99.90;;;;;;5077530;28;20461;-63
2021/09/27 00:09:44;;;;;;;19.17;16.27;;;18.90;99.90;;;;;;5077107;28;20189;-63
2021/09/27 00:12:10;;;;;;;19.73;15.60;;;18.90;99.90;;;;;;5077421;28;20524;-63
2021/09/27 00:14:38;;;;;;;17.67;15.87;;;18.90;99.90;;;;;;5077024;28;20192;-63
2021/09/27 00:17:07;;;;;;;18.40;16.53;;;18.90;99.90;;;;;;5076985;28;20465;-64
2021/09/27 00:19:34;;;;;;;18.37;16.27;;;18.90;99.90;;;;;;5076917;28;20930;-63
2021/09/27 00:22:00;;;;;;;18.53;16.67;;;18.80;99.90;;;;;;5059056;28;20421;-63
2021/09/27 00:24:26;;;;;;;18.33;16.40;;;18.80;99.90;;;;;;5076797;28;20953;-63
2021/09/27 00:26:52;;;;;;;18.10;16.20;;;18.80;99.90;;;;;;5077090;28;20219;-63
2021/09/27 00:29:17;;;;;;;19.20;17.20;;;18.80;99.90;;;;;;5076723;28;20238;-63
2021/09/27 00:31:43;;;;;;;17.80;16.07;;;18.80;99.90;;;;;;5077029;28;20471;-63
2021/09/27 00:34:09;;;;;;;20.10;17.97;;;18.70;99.90;;;;;;5076612;28;20678;-63
2021/09/27 00:36:34;;;;;;;18.83;16.60;;;18.70;99.90;;;;;;5076385;28;20189;-63
2021/09/27 00:39:00;;;;;;;18.33;16.47;;;18.80;99.90;;;;;;5076515;28;20934;-63
2021/09/27 00:41:26;;;;;;;17.33;15.47;;;18.70;99.90;;;;;;5076756;28;20169;-64
2021/09/27 00:43:52;;;;;;;17.83;15.40;;;18.70;99.90;;;;;;5076334;28;20429;-63
2021/09/27 00:46:27;;;;;;;22.83;16.77;;;18.70;99.90;;;;;;5058254;28;20231;-63
2021/09/27 00:48:54;;;;;;;19.90;16.20;;;18.70;99.90;;;;;;5058283;28;20437;-63
2021/09/27 00:51:25;;;;;;;17.87;15.73;;;18.70;99.90;;;;;;5058421;28;20495;-63
2021/09/27 00:53:56;;;;;;;18.63;16.50;;;18.60;99.90;;;;;;5076195;28;20452;-64
2021/09/27 00:56:25;;;;;;;19.03;17.03;;;18.60;99.90;;;;;;5076470;28;20789;-63
2021/09/27 00:58:54;;;;;;;17.50;15.60;;;18.60;99.90;;;;;;5075837;28;20452;-63
2021/09/27 01:01:20;;;;;;;18.27;15.23;;;18.60;99.90;;;;;;5058232;28;20536;-63
2021/09/27 01:03:46;;;;;;;18.53;14.97;;;18.60;99.90;;;;;;5075982;28;20508;-63
2021/09/27 01:06:11;;;;;;;21.30;16.90;;;18.50;99.90;;;;;;5076116;28;20500;-63
2021/09/27 01:08:37;;;;;;;20.20;16.97;;;18.50;99.90;;;;;;5076089;28;20550;-63
2021/09/27 01:11:38;;;;;;;18.70;16.43;;;18.60;99.90;;;;;;5076075;28;20544;-63
2021/09/27 01:14:30;;;;;;;19.20;16.70;;;18.50;99.90;;;;;;5062336;28;20216;-63
2021/09/27 01:17:13;;;;;;;23.90;16.90;;;18.50;99.90;;;;;;5075851;28;20809;-63
2021/09/27 01:20:27;;;;;;;20.90;17.47;;;18.40;99.90;;;;;;5075865;28;20438;-63
2021/09/27 01:23:34;;;;;;;18.90;16.93;;;18.40;99.90;;;;;;5020424;28;20850;-63
2021/09/27 01:26:22;;;;;;;22.10;17.07;;;18.40;99.90;;;;;;5057728;28;20481;-63
2021/09/27 01:29:13;;;;;;;21.30;17.00;;;18.40;99.90;;;;;;5057591;28;20955;-63
2021/09/27 01:32:20;;;;;;;20.33;17.43;;;18.30;99.90;;;;;;5075958;28;20788;-63
2021/09/27 01:35:06;;;;;;;20.30;16.90;;;18.30;99.90;;;;;;5075422;28;20438;-63
2021/09/27 01:37:56;;;;;;;17.83;16.07;;;18.20;99.90;;;;;;5076274;28;20767;-63
2021/09/27 01:40:32;;;;;;;20.57;16.57;;;18.20;99.90;;;;;;5075199;28;20793;-63
2021/09/27 01:43:09;;;;;;;19.67;16.40;;;18.20;99.90;;;;;;5075351;28;20390;-63
2021/09/27 01:45:50;;;;;;;19.00;16.67;;;18.20;99.90;;;;;;5075280;28;20456;-63
2021/09/27 01:48:21;;;;;;;18.57;16.77;;;18.20;99.90;;;;;;5075210;28;20378;-63
2021/09/27 01:51:05;;;;;;;27.53;16.30;;;18.20;99.90;;;;;;5075199;28;20413;-63
2021/09/27 01:53:46;;;;;;;18.43;16.50;;;18.20;99.90;;;;;;5057103;28;20417;-63
2021/09/27 01:56:27;;;;;;;18.67;16.73;;;18.20;99.90;;;;;;5075514;28;20831;-63
2021/09/27 01:59:03;;;;;;;17.33;15.63;;;18.20;99.90;;;;;;5074964;28;20421;-63
2021/09/27 02:02:07;;;;;;;18.00;16.00;;;18.20;99.90;;;;;;5075052;28;20895;-63
2021/09/27 02:04:52;;;;;;;19.97;16.43;;;18.30;99.90;;;;;;5056884;28;20934;-63
2021/09/27 02:07:21;;;;;;;18.20;16.07;;;18.30;99.90;;;;;;5075302;28;20422;-63
2021/09/27 02:09:57;;;;;;;16.93;15.23;;;18.30;99.90;;;;;;5074720;28;20423;-63
2021/09/27 02:12:29;;;;;;;20.57;18.07;;;18.30;99.90;;;;;;5074841;28;20429;-63
2021/09/27 02:15:17;;;;;;;19.43;17.30;;;18.30;99.90;;;;;;5074687;28;20428;-63
2021/09/27 02:18:01;;;;;;;17.73;15.93;;;18.30;99.90;;;;;;5074764;28;20473;-63
2021/09/27 02:20:37;;;;;;;19.40;17.43;;;18.30;99.90;;;;;;5074465;28;20433;-63
2021/09/27 02:23:11;;;;;;;16.80;15.00;;;18.30;99.90;;;;;;5074591;28;20401;-63
2021/09/27 02:25:40;;;;;;;20.97;17.13;;;18.30;99.90;;;;;;5074501;28;20428;-63
2021/09/27 02:28:17;;;;;;;18.97;17.07;;;18.30;99.90;;;;;;5074398;28;20540;-63
2021/09/27 02:30:45;;;;;;;20.00;17.60;;;18.30;99.90;;;;;;5074455;28;20501;-64
2021/09/27 02:33:27;;;;;;;18.87;16.93;;;18.20;99.90;;;;;;5074267;28;20416;-64
2021/09/27 02:36:16;;;;;;;19.80;15.43;;;18.30;99.90;;;;;;5074424;28;20417;-63
2021/09/27 02:38:56;;;;;;;18.27;16.17;;;18.30;99.90;;;;;;5074187;28;20430;-63
2021/09/27 02:41:52;;;;;;;22.37;16.67;;;18.30;99.90;;;;;;5074464;28;20513;-63
2021/09/27 02:44:18;;;;;;;19.33;17.10;;;18.30;99.90;;;;;;5074227;28;20392;-63
2021/09/27 02:46:53;;;;;;;19.83;17.00;;;18.30;99.90;;;;;;5074341;28;20480;-64
2021/09/27 02:49:25;;;;;;;23.80;18.40;;;18.20;99.90;;;;;;5056418;28;20220;-63
2021/09/27 02:51:51;;;;;;;20.13;17.87;;;18.30;99.90;;;;;;5074483;28;20886;-63
2021/09/27 02:54:33;;;;;;;18.73;16.83;;;18.20;99.90;;;;;;5073921;28;20425;-63
2021/09/27 02:57:45;;;;;;;18.77;15.97;;;18.20;99.90;;;;;;5074415;28;20425;-63
2021/09/27 03:00:19;;;;;;;20.53;16.33;;;18.20;99.90;;;;;;4973178;28;20446;-63
2021/09/27 03:03:11;;;;;;;18.67;16.43;;;18.20;99.90;;;;;;4973187;28;20488;-63
2021/09/27 03:05:42;;;;;;;19.43;17.43;;;18.10;99.90;;;;;;5049116;28;20831;-63
2021/09/27 03:08:11;;;;;;;19.40;17.00;;;18.10;99.90;;;;;;5073990;28;20974;-64
2021/09/27 03:11:04;;;;;;;21.03;16.77;;;18.10;99.90;;;;;;5073628;28;20975;-63
2021/09/27 03:14:07;;;;;;;19.50;17.40;;;18.10;99.90;;;;;;5073534;28;20492;-63
2021/09/27 03:16:35;;;;;;;18.97;16.97;;;18.00;99.90;;;;;;5073658;28;20848;-63
2021/09/27 03:19:43;;;;;;;19.43;16.40;;;18.00;99.90;;;;;;5073571;28;20950;-63
2021/09/27 03:22:27;;;;;;;18.90;17.00;;;18.00;99.90;;;;;;5073820;28;20429;-63
2021/09/27 03:25:23;;;;;;;23.33;17.93;;;18.00;99.90;;;;;;5073478;28;20819;-63
2021/09/27 03:27:59;;;;;;;21.47;18.80;;;18.00;99.90;;;;;;5073628;28;20410;-63
2021/09/27 03:30:52;;;;;;;19.67;17.50;;;18.00;99.90;;;;;;5073524;28;20439;-64
2021/09/27 03:33:52;;;;;;;19.83;17.80;;;18.00;99.90;;;;;;5073682;28;20391;-63
2021/09/27 03:36:34;;;;;;;20.40;18.30;;;18.00;99.90;;;;;;4972705;28;20429;-63
2021/09/27 03:39:08;;;;;;;22.50;17.70;;;18.00;99.90;;;;;;5062907;28;20441;-63
2021/09/27 03:41:49;;;;;;;20.50;18.27;;;18.00;99.90;;;;;;5073869;28;20417;-63
2021/09/27 03:44:39;;;;;;;20.87;17.20;;;18.00;99.90;;;;;;5073380;28;20503;-63
2021/09/27 03:47:25;;;;;;;21.57;18.67;;;18.00;99.90;;;;;;5055433;28;20439;-64
2021/09/27 03:50:03;;;;;;;20.67;16.77;;;18.00;99.90;;;;;;5055360;28;20454;-63
2021/09/27 03:52:36;;;;;;;19.43;17.43;;;18.00;99.90;;;;;;5055687;28;20433;-63
2021/09/27 03:55:20;;;;;;;18.80;16.90;;;17.90;99.90;;;;;;5073300;28;20438;-63
2021/09/27 03:57:55;;;;;;;22.27;17.70;;;17.90;99.90;;;;;;5073806;28;20422;-63
2021/09/27 04:00:27;;;;;;;20.83;18.83;;;17.90;99.90;;;;;;5073316;28;20429;-63
2021/09/27 04:03:19;;;;;;;19.00;17.00;;;17.90;99.90;;;;;;5055310;28;20455;-63
2021/09/27 04:06:16;;;;;;;18.70;16.90;;;17.90;99.90;;;;;;5055292;28;20473;-63
2021/09/27 04:08:58;;;;;;;21.50;17.30;;;17.90;99.90;;;;;;5073238;28;20430;-63
2021/09/27 04:11:53;;;;;;;19.77;17.80;;;17.90;99.90;;;;;;5073479;28;20417;-63
2021/09/27 04:14:27;;;;;;;21.27;17.83;;;17.90;99.90;;;;;;5055267;28;20433;-63
2021/09/27 04:17:21;;;;;;;18.77;16.90;;;17.90;99.90;;;;;;5073045;28;20461;-63
2021/09/27 04:19:46;;;;;;;23.33;18.90;;;17.90;99.90;;;;;;5073158;28;20802;-63
2021/09/27 04:22:33;;;;;;;20.83;17.80;;;17.90;99.90;;;;;;5073565;28;20414;-63
2021/09/27 04:25:28;;;;;;;20.50;18.17;;;17.80;99.90;;;;;;5076686;28;20741;-63
2021/09/27 04:28:29;;;;;;;21.00;18.80;;;17.80;99.90;;;;;;5032303;28;20426;-63
2021/09/27 04:31:15;;;;;;;18.70;16.73;;;17.90;99.90;;;;;;5056975;28;20972;-63
2021/09/27 04:33:55;;;;;;;18.20;16.40;;;17.90;99.90;;;;;;5056826;28;20446;-64
2021/09/27 04:36:32;;;;;;;18.13;16.30;;;17.90;99.90;;;;;;5058682;28;20571;-63
2021/09/27 04:39:08;;;;;;;18.60;16.57;;;17.90;99.90;;;;;;5076588;28;20425;-63
2021/09/27 04:41:58;;;;;;;15.60;13.87;;;17.80;99.90;;;;;;5076859;28;20417;-63
2021/09/27 04:44:41;;;;;;;17.90;15.83;;;17.90;99.90;;;;;;5058457;28;20442;-63
2021/09/27 04:47:09;;;;;;;16.47;14.63;;;17.90;99.90;;;;;;5077011;28;20840;-64
2021/09/27 04:50:03;;;;;;;20.70;15.77;;;17.90;99.90;;;;;;5085646;28;20447;-63
2021/09/27 04:52:57;;;;;;;16.53;14.67;;;17.90;99.90;;;;;;5098004;28;20524;-63
2021/09/27 04:55:57;;;;;;;15.30;13.70;;;17.90;99.90;;;;;;5079414;28;20535;-63
2021/09/27 04:58:45;;;;;;;15.57;14.00;;;17.90;99.90;;;;;;5100877;28;20409;-63
2021/09/27 05:01:31;;;;;;;16.20;12.77;;;17.90;99.90;;;;;;5077419;28;20445;-63
2021/09/27 05:04:30;;;;;;;16.40;14.70;;;17.90;99.90;;;;;;5075404;28;20477;-63
2021/09/27 05:07:17;;;;;;;16.50;14.70;;;17.90;99.90;;;;;;5087367;28;20477;-63
2021/09/27 05:09:48;;;;;;;17.07;15.20;;;17.90;99.90;;;;;;5076905;28;20523;-63
2021/09/27 05:12:21;;;;;;;17.60;15.90;;;17.90;99.90;;;;;;5060255;28;20438;-63
2021/09/27 05:15:14;;;;;;;16.57;14.60;;;17.90;99.90;;;;;;5075749;28;20469;-63
2021/09/27 05:18:17;;;;;;;15.57;13.97;;;17.90;99.90;;;;;;5057894;28;20838;-63
2021/09/27 05:21:03;;;;;;;18.77;15.07;;;17.90;99.90;;;;;;5090594;28;20440;-63
2021/09/27 05:23:48;;;;;;;15.60;14.10;;;18.00;99.90;;;;;;5101570;28;20945;-63
2021/09/27 05:26:23;;;;;;;15.83;14.13;;;18.00;99.90;;;;;;5089228;28;20814;-63
2021/09/27 05:29:08;;;;;;;16.77;13.73;;;18.00;99.90;;;;;;5107382;28;20845;-63
2021/09/27 05:31:36;;;;;;;16.00;14.30;;;18.00;99.90;;;;;;5085356;28;20783;-63
2021/09/27 05:34:22;;;;;;;17.40;15.60;;;18.00;99.90;;;;;;5104949;28;20532;-63
2021/09/27 05:37:03;;;;;;;18.20;16.40;;;18.00;99.90;;;;;;5092248;28;20440;-63
2021/09/27 05:39:49;;;;;;;16.53;14.90;;;17.90;99.90;;;;;;5074654;28;20433;-64
2021/09/27 05:42:24;;;;;;;19.27;16.43;;;17.90;99.90;;;;;;5087670;28;20462;-63
2021/09/27 05:45:31;;;;;;;17.30;15.50;;;17.90;99.90;;;;;;5104646;28;20537;-64
2021/09/27 05:48:11;;;;;;;16.13;14.53;;;17.90;99.90;;;;;;5049484;28;20428;-63
2021/09/27 05:50:58;;;;;;;19.47;16.50;;;17.90;99.90;;;;;;5103200;28;20626;-63
2021/09/27 05:53:40;;;;;;;18.63;15.70;;;17.90;99.90;;;;;;5088726;28;20948;-64
2021/09/27 05:56:16;;;;;;;19.53;16.57;;;17.90;99.90;;;;;;5095104;28;20936;-64
2021/09/27 05:59:09;;;;;;;19.90;16.83;;;17.90;99.90;;;;;;5082586;28;20463;-64
2021/09/27 06:01:57;;;;;;;21.60;16.80;;;17.90;99.90;;;;;;5089233;28;20438;-64
2021/09/27 06:04:43;;;;;;;18.50;16.53;;;17.90;99.90;;;;;;5088425;28;20476;-64
2021/09/27 06:07:22;;;;;;;20.90;17.20;;;18.00;99.90;;;;;;5087709;28;20442;-63
2021/09/27 06:10:41;;;;;;;18.33;16.53;;;18.00;99.90;;;;;;5074693;28;20456;-63
2021/09/27 06:13:12;;;;;;;21.73;18.10;;;17.90;99.90;;;;;;5053093;28;20937;-63
2021/09/27 06:15:45;;;;;;;20.47;18.30;;;18.00;99.90;;;;;;5091607;28;20464;-63
2021/09/27 06:18:37;;;;;;;24.00;17.57;;;17.90;99.90;;;;;;5056851;28;20503;-63
2021/09/27 06:21:20;;;;;;;20.83;18.17;;;18.00;99.90;;;;;;5074705;28;20422;-63
2021/09/27 06:24:04;;;;;;;21.80;18.93;;;18.00;99.90;;;;;;5056627;28;20434;-63
2021/09/27 06:26:34;;;;;;;20.47;18.27;;;17.90;99.90;;;;;;5074138;28;20478;-63
2021/09/27 06:29:29;;;;;;;21.20;18.40;;;18.00;99.90;;;;;;5092283;28;20972;-63
2021/09/27 06:32:21;;;;;;;23.30;18.27;;;18.00;99.90;;;;;;5073275;28;20540;-65
2021/09/27 06:34:56;;;;;;;20.73;18.53;;;18.00;99.90;;;;;;5084154;28;20539;-63
2021/09/27 06:37:24;;;;;;;23.03;18.60;;;18.00;99.90;;;;;;5101963;28;20453;-64
2021/09/27 06:39:51;;;;;;;23.10;17.13;;;17.90;99.90;;;;;;5073050;28;20821;-63
2021/09/27 06:42:17;;;;;;;20.50;16.10;;;17.90;99.90;;;;;;5109442;28;20436;-63
2021/09/27 06:44:45;;;;;;;20.80;17.03;;;17.90;99.90;;;;;;5088154;28;20488;-64
2021/09/27 06:47:12;;;;;;;17.80;15.03;;;17.90;99.90;;;;;;5059488;28;20399;-64
2021/09/27 06:49:38;;;;;;;19.33;15.90;;;17.90;99.90;;;;;;5084142;28;20439;-63
2021/09/27 06:52:03;;;;;;;18.50;15.37;;;17.90;99.90;;;;;;5083037;28;20417;-63
2021/09/27 06:54:29;;;;;;;20.00;13.80;;;17.90;99.90;;;;;;5070971;28;20457;-63
2021/09/27 06:56:55;;;;;;;16.40;14.70;;;17.90;99.90;;;;;;5074424;28;20177;-63
2021/09/27 06:59:21;;;;;;;19.73;15.93;;;17.80;99.90;;;;;;5081040;28;20225;-63
2021/09/27 07:01:48;;;;;;;16.73;15.03;;;17.80;99.90;;;;;;5078344;28;20193;-64
2021/09/27 07:04:14;;;;;;;21.17;13.90;;;17.80;99.90;;;;;;5071431;28;20422;-64
2021/09/27 07:06:40;;;;;;;16.87;13.77;;;17.80;99.90;;;;;;5070216;28;20480;-63
2021/09/27 07:09:06;;;;;;;16.03;13.57;;;17.90;99.90;;;;;;5087878;28;20251;-63
2021/09/27 07:11:32;;;;;;;15.27;13.63;;;17.80;99.90;;;;;;5097106;28;21033;-64
2021/09/27 07:13:58;;;;;;;14.87;13.33;;;17.80;99.90;;;;;;5109989;28;20535;-63
2021/09/27 07:16:24;;;;;;;19.00;14.60;;;17.80;99.90;;;;;;5089257;28;20576;-63
2021/09/27 07:18:49;;;;;;;21.40;14.57;;;17.80;99.90;;;;;;5091026;28;20184;-63
2021/09/27 07:21:15;;;;;;;16.30;13.17;;;17.80;99.90;;;;;;5055806;28;20323;-64
2021/09/27 07:23:41;;;;;;;15.53;13.27;;;17.80;99.90;;;;;;5076502;28;20817;-63
2021/09/27 07:26:13;;;;;;;15.23;13.70;;;17.80;99.90;;;;;;5078502;28;20482;-64
2021/09/27 07:28:39;;;;;;;15.50;14.00;;;17.80;99.90;;;;;;5085838;28;20396;-64
2021/09/27 07:31:05;;;;;;;16.43;14.27;;;17.80;99.90;;;;;;5081552;28;21022;-63
2021/09/27 07:33:32;;;;;;;15.00;13.40;;;17.80;99.90;;;;;;5075537;28;20608;-63
2021/09/27 07:35:58;;;;;;;17.97;13.33;;;17.70;99.90;;;;;;5074834;28;20449;-64
2021/09/27 07:38:24;;;;;;;16.93;15.13;;;17.70;99.90;;;;;;5076342;28;20797;-63
2021/09/27 07:40:51;;;;;;;19.13;15.57;;;17.70;99.90;;;;;;5077096;28;20505;-64
2021/09/27 07:43:17;;;;;;;20.17;16.17;;;17.70;99.90;;;;;;5084633;28;20476;-63
2021/09/27 07:45:43;;;;;;;18.53;14.70;;;17.60;99.90;;;;;;5094747;28;20567;-63
2021/09/27 07:48:13;;;;;;;19.13;14.47;;;17.70;99.90;;;;;;5083873;28;20433;-64
2021/09/27 07:50:43;;;;;;;16.57;13.87;;;17.70;99.90;;;;;;5078834;28;20182;-63
2021/09/27 07:53:09;;;;;;;23.93;13.37;;;17.70;99.90;;;;;;5091334;28;20520;-64
2021/09/27 07:55:34;;;;;;;16.43;13.87;;;17.70;99.90;;;;;;5077059;28;20862;-63
2021/09/27 07:58:00;;;;;;;16.20;12.97;;;17.80;99.90;;;;;;5092576;28;20411;-64
2021/09/27 08:00:26;;;;;;;17.53;14.30;;;17.80;99.90;;;;;;5090987;28;20287;-63
2021/09/27 08:02:52;;;;;;;16.70;14.37;;;17.80;99.90;;;;;;5089210;28;20180;-63
2021/09/27 08:05:22;;;;;;;16.00;14.30;;;17.90;99.90;;;;;;5070827;28;20464;-63
2021/09/27 08:07:48;;;;;;;18.17;13.00;;;17.90;99.90;;;;;;5101756;28;20271;-63
2021/09/27 08:10:16;;;;;;;16.00;13.77;;;17.90;99.90;;;;;;5095446;28;20512;-63
2021/09/27 08:12:41;;;;;;;15.47;13.53;;;17.90;99.90;;;;;;5096874;28;21031;-63
2021/09/27 08:15:17;;;;;;;17.10;13.40;;;17.90;99.90;;;;;;5090493;28;20968;-63
2021/09/27 08:17:44;;;;;;;16.50;13.90;;;17.90;99.90;;;;;;5089309;28;20289;-63
2021/09/27 08:20:12;;;;;;;18.87;14.20;;;18.00;99.90;;;;;;5092867;28;20949;-63
2021/09/27 08:22:38;;;;;;;17.10;13.97;;;18.00;99.90;;;;;;5068969;28;20439;-64
2021/09/27 08:25:05;;;;;;;18.80;13.00;;;18.00;99.90;;;;;;5095003;28;20830;-65
2021/09/27 08:27:31;;;;;;;18.77;13.77;;;18.00;99.90;;;;;;5091977;28;20797;-63
2021/09/27 08:29:56;;;;;;;15.80;13.23;;;18.00;99.90;;;;;;5091223;28;20529;-63
2021/09/27 08:32:22;;;;;;;17.03;13.20;;;18.10;99.90;;;;;;5088844;28;20233;-64
2021/09/27 08:34:52;;;;;;;15.17;13.10;;;18.10;99.90;;;;;;5075973;28;20232;-63
2021/09/27 08:37:19;;;;;;;16.40;13.43;;;18.20;99.90;;;;;;5101958;28;20207;-64
2021/09/27 08:39:47;;;;;;;18.77;14.50;;;18.20;99.90;;;;;;5096792;28;20503;-63
2021/09/27 08:42:19;;;;;;;40.30;28.40;;;18.30;99.90;;;;;;5076109;28;20436;-63
2021/09/27 08:45:12;;;;;;;30.63;22.73;;;18.30;99.90;;;;;;5095352;28;20870;-63
2021/09/27 08:47:54;;;;;;;18.50;15.30;;;18.30;99.90;;;;;;5097715;28;20454;-63
2021/09/27 08:50:31;;;;;;;17.27;13.57;;;18.40;99.90;;;;;;5103204;28;20448;-63
2021/09/27 08:53:01;;;;;;;13.57;11.97;;;18.40;99.90;;;;;;5080689;28;20451;-63
2021/09/27 08:55:30;;;;;;;14.87;13.30;;;18.50;99.90;;;;;;5088594;28;20817;-64
2021/09/27 08:58:04;;;;;;;17.03;13.47;;;18.50;99.90;;;;;;5097782;28;20417;-63
2021/09/27 09:00:38;;;;;;;16.47;13.97;;;18.60;99.90;;;;;;5084630;28;20490;-63
2021/09/27 09:03:25;;;;;;;15.97;13.70;;;18.60;99.90;;;;;;5088392;28;20978;-64
2021/09/27 09:06:08;;;;;;;14.77;12.67;;;18.60;99.90;;;;;;5086787;28;20488;-64
2021/09/27 09:08:56;;;;;;;14.50;11.90;;;18.60;99.90;;;;;;5089551;28;20535;-64
2021/09/27 09:11:47;;;;;;;17.67;13.70;;;18.70;99.90;;;;;;5092272;28;20875;-64
2021/09/27 09:14:22;;;;;;;16.93;13.97;;;18.70;99.90;;;;;;5086045;28;20449;-64
2021/09/27 09:16:50;;;;;;;16.80;13.47;;;18.80;99.90;;;;;;5086856;28;20472;-63
2021/09/27 09:19:21;;;;;;;16.60;11.60;;;18.80;99.90;;;;;;5095280;28;20442;-64
2021/09/27 09:21:53;;;;;;;19.73;12.60;;;18.90;99.90;;;;;;5081168;28;20438;-64
2021/09/27 09:24:29;;;;;;;13.53;10.60;;;18.90;99.90;;;;;;5083478;28;20439;-64
2021/09/27 09:26:59;;;;;;;17.23;12.47;;;18.90;99.90;;;;;;5081838;28;20478;-63
2021/09/27 09:29:32;;;;;;;16.57;13.23;;;19.00;99.90;;;;;;5087733;28;20441;-63
2021/09/27 09:32:06;;;;;;;14.13;12.20;;;19.00;99.90;;;;;;5088565;28;20942;-63
2021/09/27 09:34:35;;;;;;;15.53;13.23;;;19.10;99.90;;;;;;5081801;28;20492;-64
2021/09/27 09:37:07;;;;;;;16.90;12.93;;;19.10;99.90;;;;;;5095646;28;20769;-64
2021/09/27 09:39:56;;;;;;;17.00;13.17;;;19.10;99.90;;;;;;5084070;28;20523;-63
2021/09/27 09:42:21;;;;;;;20.30;16.97;;;19.20;99.90;;;;;;5091903;28;20429;-64
2021/09/27 09:44:49;;;;;;;16.23;14.33;;;19.20;99.90;;;;;;5071504;28;21057;-63
2021/09/27 09:47:17;;;;;;;17.67;12.87;;;19.20;99.90;;;;;;5095770;28;20185;-64
2021/09/27 09:49:58;;;;;;;17.13;12.90;;;19.30;99.90;;;;;;5082912;28;20485;-64
2021/09/27 09:52:39;;;;;;;16.30;13.60;;;19.30;99.90;;;;;;5093897;28;20408;-63
2021/09/27 09:55:36;;;;;;;22.03;14.87;;;19.40;99.90;;;;;;5076242;28;20910;-63
2021/09/27 09:58:27;;;;;;;16.07;12.27;;;19.40;99.90;;;;;;5097352;28;20470;-65
2021/09/27 10:00:53;;;;;;;18.20;13.50;;;19.60;99.90;;;;;;5074508;28;20441;-64
2021/09/27 10:03:27;;;;;;;17.13;13.50;;;19.60;99.90;;;;;;5111764;28;20413;-64
2021/09/27 10:06:03;;;;;;;19.00;13.97;;;19.70;99.90;;;;;;5096743;28;20224;-63
2021/09/27 10:08:29;;;;;;;15.70;13.20;;;19.80;99.90;;;;;;5077828;28;20485;-64
2021/09/27 10:11:07;;;;;;;17.00;13.53;;;19.90;99.90;;;;;;5076337;28;20492;-63
2021/09/27 10:13:41;;;;;;;18.40;13.27;;;19.90;99.90;;;;;;5069669;28;20462;-63
2021/09/27 10:16:46;;;;;;;21.07;13.73;;;19.90;99.90;;;;;;5085395;28;20438;-63
2021/09/27 10:19:22;;;;;;;17.20;13.30;;;20.00;99.90;;;;;;5070228;28;20535;-64
2021/09/27 10:21:58;;;;;;;18.20;14.20;;;20.10;99.90;;;;;;5086410;28;20799;-64
2021/09/27 10:24:38;;;;;;;17.50;14.10;;;20.20;99.90;;;;;;5090472;28;20451;-63
2021/09/27 10:27:16;;;;;;;16.83;14.40;;;20.40;99.90;;;;;;5097996;28;20535;-63
2021/09/27 10:29:43;;;;;;;17.90;14.20;;;20.50;99.90;;;;;;5086649;28;20455;-63
2021/09/27 10:32:28;;;;;;;17.90;14.27;;;20.60;99.90;;;;;;5099386;28;20518;-63
2021/09/27 10:34:56;;;;;;;17.20;13.27;;;20.70;99.90;;;;;;5095554;28;20462;-63
2021/09/27 10:37:24;;;;;;;16.77;13.37;;;20.80;99.90;;;;;;5078017;28;20436;-65
2021/09/27 10:39:54;;;;;;;17.50;13.03;;;20.90;99.90;;;;;;5071819;28;20437;-64
2021/09/27 10:42:27;;;;;;;19.17;12.33;;;21.00;99.90;;;;;;5085723;28;20512;-63
2021/09/27 10:44:54;;;;;;;16.53;13.70;;;21.10;99.90;;;;;;5068234;28;20473;-63
2021/09/27 10:47:26;;;;;;;22.47;14.23;;;21.10;99.90;;;;;;5072809;28;20783;-64
2021/09/27 10:49:58;;;;;;;18.23;14.73;;;21.20;99.90;;;;;;5090820;28;21013;-64
2021/09/27 10:52:49;;;;;;;16.33;13.47;;;21.30;99.90;;;;;;5102714;28;20454;-64
2021/09/27 10:55:44;;;;;;;16.53;13.93;;;21.40;99.90;;;;;;5091680;28;20441;-64
2021/09/27 10:58:11;;;;;;;17.50;13.23;;;21.50;99.90;;;;;;5089795;28;20420;-64
2021/09/27 11:00:53;;;;;;;15.67;14.07;;;21.60;99.90;;;;;;5088398;28;20802;-64
2021/09/27 11:03:24;;;;;;;16.23;14.27;;;21.60;99.90;;;;;;5077737;28;20853;-64
2021/09/27 11:05:57;;;;;;;18.60;14.27;;;21.70;99.90;;;;;;5099194;28;20528;-64
2021/09/27 11:08:48;;;;;;;21.60;14.60;;;21.80;99.90;;;;;;5089355;28;20424;-63
2021/09/27 11:11:37;;;;;;;15.90;13.80;;;21.80;99.90;;;;;;5071120;28;20444;-63
2021/09/27 11:14:23;;;;;;;16.13;13.07;;;21.90;99.90;;;;;;5090736;28;20823;-63
2021/09/27 11:16:57;;;;;;;16.03;14.33;;;22.00;99.90;;;;;;5066228;28;20840;-64
2021/09/27 11:19:34;;;;;;;18.13;13.27;;;22.10;99.90;;;;;;5082654;28;20800;-64
2021/09/27 11:22:18;;;;;;;19.33;14.77;;;22.10;99.90;;;;;;5062969;28;20525;-64
2021/09/27 11:24:43;;;;;;;16.93;14.10;;;22.20;99.90;;;;;;5091718;28;20455;-63
2021/09/27 11:27:35;;;;;;;16.10;12.67;;;22.20;99.90;;;;;;5089110;28;20988;-64
2021/09/27 11:30:45;;;;;;;19.10;13.83;;;22.30;99.90;;;;;;5088355;28;20581;-65
2021/09/27 11:33:29;;;;;;;16.73;13.67;;;22.30;99.90;;;;;;5051004;28;20425;-65
2021/09/27 11:35:59;;;;;;;16.30;14.03;;;22.40;99.90;;;;;;5085370;28;20836;-64
2021/09/27 11:38:30;;;;;;;15.37;13.40;;;22.40;99.90;;;;;;5095725;28;20416;-64
2021/09/27 11:41:10;;;;;;;19.43;12.90;;;22.50;99.90;;;;;;5080886;28;20464;-63
2021/09/27 11:43:52;;;;;;;15.90;13.53;;;22.50;99.90;;;;;;5086968;28;20445;-63
2021/09/27 11:46:30;;;;;;;15.97;12.77;;;22.50;99.90;;;;;;5077562;28;21031;-63
2021/09/27 11:49:21;;;;;;;17.60;15.73;;;22.60;99.90;;;;;;5090571;28;20447;-63
2021/09/27 11:52:05;;;;;;;18.07;14.17;;;22.60;99.90;;;;;;5086137;28;20432;-63
2021/09/27 11:54:34;;;;;;;18.40;16.10;;;22.60;99.90;;;;;;5077819;28;21015;-64
2021/09/27 11:57:07;;;;;;;15.07;13.47;;;22.60;99.90;;;;;;5093269;28;20791;-64
2021/09/27 11:59:55;;;;;;;19.30;14.67;;;22.60;99.90;;;;;;5096389;28;20437;-64
2021/09/27 12:02:42;;;;;;;17.27;13.53;;;22.70;99.90;;;;;;5092462;28;20558;-65
2021/09/27 12:05:32;;;;;;;16.80;14.33;;;22.70;99.90;;;;;;5080574;28;20532;-64
2021/09/27 12:08:03;;;;;;;18.07;13.50;;;22.70;99.90;;;;;;5080910;28;20433;-64
2021/09/27 12:10:33;;;;;;;14.20;12.20;;;22.80;99.90;;;;;;5082131;28;20437;-64
2021/09/27 12:13:12;;;;;;;17.07;13.50;;;22.80;99.90;;;;;;5084864;28;20464;-64
2021/09/27 12:15:41;;;;;;;14.60;13.10;;;22.80;99.90;;;;;;5064587;28;20433;-65
2021/09/27 12:18:44;;;;;;;17.60;11.77;;;22.80;99.90;;;;;;5083815;28;20475;-63
2021/09/27 12:21:22;;;;;;;17.80;12.40;;;22.90;99.90;;;;;;5061928;28;20451;-63
2021/09/27 12:24:16;;;;;;;15.23;11.70;;;22.90;99.90;;;;;;5081691;28;20446;-63
2021/09/27 12:26:51;;;;;;;14.60;13.10;;;22.90;99.90;;;;;;5081053;28;20551;-63
2021/09/27 12:29:22;;;;;;;16.07;14.20;;;22.90;99.90;;;;;;5080828;28;20430;-64
2021/09/27 12:31:57;;;;;;;19.20;13.30;;;22.90;99.90;;;;;;5087405;28;21029;-64
2021/09/27 12:34:32;;;;;;;15.10;12.80;;;22.90;99.90;;;;;;5095162;28;20447;-63
2021/09/27 12:36:58;;;;;;;15.20;13.60;;;23.00;99.90;;;;;;5081071;28;20441;-64
2021/09/27 12:39:27;;;;;;;16.00;12.60;;;23.00;99.90;;;;;;5087157;28;20459;-63
2021/09/27 12:41:55;;;;;;;15.67;14.03;;;22.90;99.90;;;;;;5076390;28;20449;-63
2021/09/27 12:44:26;;;;;;;15.90;13.87;;;23.00;99.90;;;;;;5084977;28;20560;-64
2021/09/27 12:46:55;;;;;;;18.77;15.57;;;23.00;99.90;;;;;;5088254;28;21047;-63
2021/09/27 12:49:31;;;;;;;18.70;14.90;;;23.00;99.90;;;;;;5095781;28;20528;-63
2021/09/27 12:51:58;;;;;;;20.00;16.53;;;23.00;99.90;;;;;;5098630;28;20443;-64
2021/09/27 12:54:43;;;;;;;18.37;15.93;;;23.00;99.90;;;;;;5095411;28;20466;-63
2021/09/27 12:57:27;;;;;;;18.37;15.90;;;23.00;99.90;;;;;;5083410;28;20817;-64
2021/09/27 12:59:55;;;;;;;21.93;18.80;;;23.10;99.90;;;;;;5074858;28;20960;-64
2021/09/27 13:02:24;;;;;;;22.03;18.27;;;23.10;99.90;;;;;;5081659;28;20422;-63
2021/09/27 13:04:53;;;;;;;19.97;17.87;;;23.10;99.90;;;;;;5092918;28;20413;-63
2021/09/27 13:07:21;;;;;;;21.57;17.50;;;23.10;99.90;;;;;;5075044;28;20433;-64
2021/09/27 13:10:31;;;;;;;22.17;16.90;;;23.10;99.90;;;;;;5096181;28;20791;-64
2021/09/27 13:13:08;;;;;;;20.47;16.37;;;23.10;99.90;;;;;;5087876;28;20588;-64
2021/09/27 13:15:51;;;;;;;18.17;16.10;;;23.20;99.90;;;;;;5085514;28;20431;-63
2021/09/27 13:18:32;;;;;;;22.70;16.13;;;23.20;99.90;;;;;;5078635;28;20476;-63